Terminal Aerodrome Forecast
Issued by NWS

Home | Current Version | Previous Version | Text Only | Print | Product List | Glossary On
Versions: 1 2 3 4 5 6 7 8 9 10 11 12 13
113
FTUS44 KCRP 211935 AAA
TAFLRD
TAF AMD
KLRD 211935Z 2120/2218 13011KT P6SM FEW050
     FM220000 12014G19KT P6SM SKC
     FM220500 13010KT P6SM SKC=

USA.gov is the U.S. government's official web portal to all federal, state and local government web resources and services.